sensor_id;sensor_type;location;lat;lon;timestamp;P1;P2;P0
77365;PMS5003;66430;50.182;11.704;2023-08-17T00:00:40;19;19;
77365;PMS5003;66430;50.182;11.704;2023-08-17T00:03:05;22;20;
77365;PMS5003;66430;50.182;11.704;2023-08-17T00:05:30;22;22;
77365;PMS5003;66430;50.182;11.704;2023-08-17T00:07:56;22;22;
77365;PMS5003;66430;50.182;11.704;2023-08-17T00:10:22;25;25;
77365;PMS5003;66430;50.182;11.704;2023-08-17T00:12:47;20;20;
77365;PMS5003;66430;50.182;11.704;2023-08-17T00:15:13;30;28;
77365;PMS5003;66430;50.182;11.704;2023-08-17T00:17:38;24;24;
77365;PMS5003;66430;50.182;11.704;2023-08-17T00:20:05;29;28;
77365;PMS5003;66430;50.182;11.704;2023-08-17T00:22:29;25;24;
77365;PMS5003;66430;50.182;11.704;2023-08-17T00:24:55;20;20;
77365;PMS5003;66430;50.182;11.704;2023-08-17T00:27:20;25;22;
77365;PMS5003;66430;50.182;11.704;2023-08-17T00:29:45;22;22;
77365;PMS5003;66430;50.182;11.704;2023-08-17T00:32:11;24;24;
77365;PMS5003;66430;50.182;11.704;2023-08-17T00:34:36;26;25;
77365;PMS5003;66430;50.182;11.704;2023-08-17T00:37:02;22;22;
77365;PMS5003;66430;50.182;11.704;2023-08-17T00:39:27;29;29;
77365;PMS5003;66430;50.182;11.704;2023-08-17T00:41:53;27;25;
77365;PMS5003;66430;50.182;11.704;2023-08-17T00:44:18;29;28;
77365;PMS5003;66430;50.182;11.704;2023-08-17T00:46:43;22;22;
77365;PMS5003;66430;50.182;11.704;2023-08-17T00:49:08;27;27;
77365;PMS5003;66430;50.182;11.704;2023-08-17T00:51:34;30;30;
77365;PMS5003;66430;50.182;11.704;2023-08-17T00:54:00;21;21;
77365;PMS5003;66430;50.182;11.704;2023-08-17T00:56:26;26;25;
77365;PMS5003;66430;50.182;11.704;2023-08-17T00:58:50;27;25;
77365;PMS5003;66430;50.182;11.704;2023-08-17T01:01:16;26;26;
77365;PMS5003;66430;50.182;11.704;2023-08-17T01:03:41;28;27;
77365;PMS5003;66430;50.182;11.704;2023-08-17T01:06:06;26;25;
77365;PMS5003;66430;50.182;11.704;2023-08-17T01:08:31;30;29;
77365;PMS5003;66430;50.182;11.704;2023-08-17T01:10:58;28;27;
77365;PMS5003;66430;50.182;11.704;2023-08-17T01:13:24;25;25;
77365;PMS5003;66430;50.182;11.704;2023-08-17T01:15:49;28;27;
77365;PMS5003;66430;50.182;11.704;2023-08-17T01:18:17;21;21;
77365;PMS5003;66430;50.182;11.704;2023-08-17T01:20:38;31;29;
77365;PMS5003;66430;50.182;11.704;2023-08-17T01:23:04;26;24;
77365;PMS5003;66430;50.182;11.704;2023-08-17T01:25:29;29;26;
77365;PMS5003;66430;50.182;11.704;2023-08-17T01:27:54;28;27;
77365;PMS5003;66430;50.182;11.704;2023-08-17T01:30:20;26;26;
77365;PMS5003;66430;50.182;11.704;2023-08-17T01:32:48;25;23;
77365;PMS5003;66430;50.182;11.704;2023-08-17T01:35:14;25;25;
77365;PMS5003;66430;50.182;11.704;2023-08-17T01:37:37;27;27;
77365;PMS5003;66430;50.182;11.704;2023-08-17T01:40:02;29;24;
77365;PMS5003;66430;50.182;11.704;2023-08-17T01:42:28;26;25;
77365;PMS5003;66430;50.182;11.704;2023-08-17T01:44:53;25;25;
77365;PMS5003;66430;50.182;11.704;2023-08-17T01:47:20;29;26;
77365;PMS5003;66430;50.182;11.704;2023-08-17T01:49:44;28;28;
77365;PMS5003;66430;50.182;11.704;2023-08-17T01:52:09;26;25;
77365;PMS5003;66430;50.182;11.704;2023-08-17T01:54:35;30;25;
77365;PMS5003;66430;50.182;11.704;2023-08-17T01:56:59;24;23;
77365;PMS5003;66430;50.182;11.704;2023-08-17T01:59:25;24;23;
77365;PMS5003;66430;50.182;11.704;2023-08-17T02:01:50;19;18;
77365;PMS5003;66430;50.182;11.704;2023-08-17T02:04:15;24;22;
77365;PMS5003;66430;50.182;11.704;2023-08-17T02:06:40;35;35;
77365;PMS5003;66430;50.182;11.704;2023-08-17T02:09:06;24;24;
77365;PMS5003;66430;50.182;11.704;2023-08-17T02:11:31;26;24;
77365;PMS5003;66430;50.182;11.704;2023-08-17T02:13:57;22;22;
77365;PMS5003;66430;50.182;11.704;2023-08-17T02:16:22;29;27;
77365;PMS5003;66430;50.182;11.704;2023-08-17T02:18:48;29;27;
77365;PMS5003;66430;50.182;11.704;2023-08-17T02:21:13;30;29;
77365;PMS5003;66430;50.182;11.704;2023-08-17T02:23:38;22;22;
77365;PMS5003;66430;50.182;11.704;2023-08-17T02:26:04;26;26;
77365;PMS5003;66430;50.182;11.704;2023-08-17T02:28:30;22;22;
77365;PMS5003;66430;50.182;11.704;2023-08-17T02:30:56;27;27;
77365;PMS5003;66430;50.182;11.704;2023-08-17T02:33:21;29;25;
77365;PMS5003;66430;50.182;11.704;2023-08-17T02:35:48;22;22;
77365;PMS5003;66430;50.182;11.704;2023-08-17T02:38:11;22;21;
77365;PMS5003;66430;50.182;11.704;2023-08-17T02:40:37;32;29;
77365;PMS5003;66430;50.182;11.704;2023-08-17T02:43:02;28;27;
77365;PMS5003;66430;50.182;11.704;2023-08-17T02:45:28;33;31;
77365;PMS5003;66430;50.182;11.704;2023-08-17T02:47:53;28;25;
77365;PMS5003;66430;50.182;11.704;2023-08-17T02:50:18;31;27;
77365;PMS5003;66430;50.182;11.704;2023-08-17T02:52:44;29;29;
77365;PMS5003;66430;50.182;11.704;2023-08-17T02:55:09;29;27;
77365;PMS5003;66430;50.182;11.704;2023-08-17T02:57:35;31;30;
77365;PMS5003;66430;50.182;11.704;2023-08-17T03:00:00;29;29;
77365;PMS5003;66430;50.182;11.704;2023-08-17T03:02:25;28;28;
77365;PMS5003;66430;50.182;11.704;2023-08-17T03:04:50;31;31;
77365;PMS5003;66430;50.182;11.704;2023-08-17T03:07:15;33;33;
77365;PMS5003;66430;50.182;11.704;2023-08-17T03:09:41;34;33;
77365;PMS5003;66430;50.182;11.704;2023-08-17T03:12:06;27;26;
77365;PMS5003;66430;50.182;11.704;2023-08-17T03:14:32;38;35;
77365;PMS5003;66430;50.182;11.704;2023-08-17T03:16:57;42;42;
77365;PMS5003;66430;50.182;11.704;2023-08-17T03:19:23;48;42;
77365;PMS5003;66430;50.182;11.704;2023-08-17T03:21:48;32;32;
77365;PMS5003;66430;50.182;11.704;2023-08-17T03:24:13;41;39;
77365;PMS5003;66430;50.182;11.704;2023-08-17T03:26:39;48;48;
77365;PMS5003;66430;50.182;11.704;2023-08-17T03:29:04;54;51;
77365;PMS5003;66430;50.182;11.704;2023-08-17T03:31:30;43;41;
77365;PMS5003;66430;50.182;11.704;2023-08-17T03:33:55;47;45;
77365;PMS5003;66430;50.182;11.704;2023-08-17T03:36:21;43;43;
77365;PMS5003;66430;50.182;11.704;2023-08-17T03:38:46;52;50;
77365;PMS5003;66430;50.182;11.704;2023-08-17T03:41:11;46;44;
77365;PMS5003;66430;50.182;11.704;2023-08-17T03:43:38;49;45;
77365;PMS5003;66430;50.182;11.704;2023-08-17T03:48:28;50;49;
77365;PMS5003;66430;50.182;11.704;2023-08-17T03:50:54;48;46;
77365;PMS5003;66430;50.182;11.704;2023-08-17T03:53:18;53;51;
77365;PMS5003;66430;50.182;11.704;2023-08-17T03:55:45;45;44;
77365;PMS5003;66430;50.182;11.704;2023-08-17T03:58:10;46;46;
77365;PMS5003;66430;50.182;11.704;2023-08-17T04:00:35;38;38;
77365;PMS5003;66430;50.182;11.704;2023-08-17T04:03:00;46;45;
77365;PMS5003;66430;50.182;11.704;2023-08-17T04:05:27;46;44;
77365;PMS5003;66430;50.182;11.704;2023-08-17T04:07:51;45;43;
77365;PMS5003;66430;50.182;11.704;2023-08-17T04:10:16;48;47;
77365;PMS5003;66430;50.182;11.704;2023-08-17T04:12:41;44;43;
77365;PMS5003;66430;50.182;11.704;2023-08-17T04:15:06;52;49;
77365;PMS5003;66430;50.182;11.704;2023-08-17T04:17:32;47;43;
77365;PMS5003;66430;50.182;11.704;2023-08-17T04:19:57;42;42;
77365;PMS5003;66430;50.182;11.704;2023-08-17T04:22:22;39;39;
77365;PMS5003;66430;50.182;11.704;2023-08-17T04:24:48;43;40;
77365;PMS5003;66430;50.182;11.704;2023-08-17T04:27:13;48;43;
77365;PMS5003;66430;50.182;11.704;2023-08-17T04:29:38;44;42;
77365;PMS5003;66430;50.182;11.704;2023-08-17T04:32:04;44;42;
77365;PMS5003;66430;50.182;11.704;2023-08-17T04:34:29;50;48;
77365;PMS5003;66430;50.182;11.704;2023-08-17T04:36:55;54;49;
77365;PMS5003;66430;50.182;11.704;2023-08-17T04:39:21;45;44;
77365;PMS5003;66430;50.182;11.704;2023-08-17T04:41:46;49;44;
77365;PMS5003;66430;50.182;11.704;2023-08-17T04:44:11;53;50;
77365;PMS5003;66430;50.182;11.704;2023-08-17T04:46:36;49;46;
77365;PMS5003;66430;50.182;11.704;2023-08-17T04:49:01;56;51;
77365;PMS5003;66430;50.182;11.704;2023-08-17T04:51:27;54;53;
77365;PMS5003;66430;50.182;11.704;2023-08-17T04:53:52;54;49;
77365;PMS5003;66430;50.182;11.704;2023-08-17T04:56:17;58;57;
77365;PMS5003;66430;50.182;11.704;2023-08-17T04:58:43;52;47;
77365;PMS5003;66430;50.182;11.704;2023-08-17T05:01:08;65;61;
77365;PMS5003;66430;50.182;11.704;2023-08-17T05:03:34;63;61;
77365;PMS5003;66430;50.182;11.704;2023-08-17T05:05:59;59;54;
77365;PMS5003;66430;50.182;11.704;2023-08-17T05:08:25;56;56;
77365;PMS5003;66430;50.182;11.704;2023-08-17T05:10:50;51;49;
77365;PMS5003;66430;50.182;11.704;2023-08-17T05:13:15;50;49;
77365;PMS5003;66430;50.182;11.704;2023-08-17T05:15:41;53;50;
77365;PMS5003;66430;50.182;11.704;2023-08-17T05:18:07;49;46;
77365;PMS5003;66430;50.182;11.704;2023-08-17T05:20:33;52;47;
77365;PMS5003;66430;50.182;11.704;2023-08-17T05:22:58;55;53;
77365;PMS5003;66430;50.182;11.704;2023-08-17T05:25:24;55;55;
77365;PMS5003;66430;50.182;11.704;2023-08-17T05:27:49;50;49;
77365;PMS5003;66430;50.182;11.704;2023-08-17T05:30:15;47;47;
77365;PMS5003;66430;50.182;11.704;2023-08-17T05:32:40;53;52;
77365;PMS5003;66430;50.182;11.704;2023-08-17T05:35:06;54;50;
77365;PMS5003;66430;50.182;11.704;2023-08-17T05:37:31;57;55;
77365;PMS5003;66430;50.182;11.704;2023-08-17T05:39:57;56;50;
77365;PMS5003;66430;50.182;11.704;2023-08-17T05:42:23;53;51;
77365;PMS5003;66430;50.182;11.704;2023-08-17T05:44:48;56;52;
77365;PMS5003;66430;50.182;11.704;2023-08-17T05:47:14;53;53;
77365;PMS5003;66430;50.182;11.704;2023-08-17T05:49:39;58;56;
77365;PMS5003;66430;50.182;11.704;2023-08-17T05:52:05;52;51;
77365;PMS5003;66430;50.182;11.704;2023-08-17T05:54:30;49;49;
77365;PMS5003;66430;50.182;11.704;2023-08-17T05:56:56;53;51;
77365;PMS5003;66430;50.182;11.704;2023-08-17T05:59:22;51;46;
77365;PMS5003;66430;50.182;11.704;2023-08-17T06:01:47;47;47;
77365;PMS5003;66430;50.182;11.704;2023-08-17T06:04:13;47;46;
77365;PMS5003;66430;50.182;11.704;2023-08-17T06:06:38;47;45;
77365;PMS5003;66430;50.182;11.704;2023-08-17T06:09:04;53;51;
77365;PMS5003;66430;50.182;11.704;2023-08-17T06:11:29;47;46;
77365;PMS5003;66430;50.182;11.704;2023-08-17T06:13:54;50;50;
77365;PMS5003;66430;50.182;11.704;2023-08-17T06:16:19;46;43;
77365;PMS5003;66430;50.182;11.704;2023-08-17T06:18:44;44;43;
77365;PMS5003;66430;50.182;11.704;2023-08-17T06:21:09;44;43;
77365;PMS5003;66430;50.182;11.704;2023-08-17T06:23:35;39;36;
77365;PMS5003;66430;50.182;11.704;2023-08-17T06:26:00;45;42;
77365;PMS5003;66430;50.182;11.704;2023-08-17T06:28:26;38;37;
77365;PMS5003;66430;50.182;11.704;2023-08-17T06:30:52;41;40;
77365;PMS5003;66430;50.182;11.704;2023-08-17T06:33:17;42;41;
77365;PMS5003;66430;50.182;11.704;2023-08-17T06:35:43;38;37;
77365;PMS5003;66430;50.182;11.704;2023-08-17T06:38:08;40;39;
77365;PMS5003;66430;50.182;11.704;2023-08-17T06:40:34;47;43;
77365;PMS5003;66430;50.182;11.704;2023-08-17T06:42:59;43;40;
77365;PMS5003;66430;50.182;11.704;2023-08-17T06:45:24;47;44;
77365;PMS5003;66430;50.182;11.704;2023-08-17T06:47:49;47;44;
77365;PMS5003;66430;50.182;11.704;2023-08-17T06:50:15;50;47;
77365;PMS5003;66430;50.182;11.704;2023-08-17T06:52:40;43;43;
77365;PMS5003;66430;50.182;11.704;2023-08-17T06:55:06;48;48;
77365;PMS5003;66430;50.182;11.704;2023-08-17T06:57:32;44;41;
77365;PMS5003;66430;50.182;11.704;2023-08-17T06:59:58;47;45;
77365;PMS5003;66430;50.182;11.704;2023-08-17T07:02:23;44;41;
77365;PMS5003;66430;50.182;11.704;2023-08-17T07:04:48;47;47;
77365;PMS5003;66430;50.182;11.704;2023-08-17T07:07:14;44;43;
77365;PMS5003;66430;50.182;11.704;2023-08-17T07:09:39;49;48;
77365;PMS5003;66430;50.182;11.704;2023-08-17T07:12:05;46;43;
77365;PMS5003;66430;50.182;11.704;2023-08-17T07:14:31;40;40;
77365;PMS5003;66430;50.182;11.704;2023-08-17T07:16:56;50;43;
77365;PMS5003;66430;50.182;11.704;2023-08-17T07:19:22;45;42;
77365;PMS5003;66430;50.182;11.704;2023-08-17T07:21:46;40;40;
77365;PMS5003;66430;50.182;11.704;2023-08-17T07:24:12;40;39;
77365;PMS5003;66430;50.182;11.704;2023-08-17T07:26:38;51;42;
77365;PMS5003;66430;50.182;11.704;2023-08-17T07:29:03;42;40;
77365;PMS5003;66430;50.182;11.704;2023-08-17T07:31:28;45;42;
77365;PMS5003;66430;50.182;11.704;2023-08-17T07:33:54;41;40;
77365;PMS5003;66430;50.182;11.704;2023-08-17T07:36:20;42;40;
77365;PMS5003;66430;50.182;11.704;2023-08-17T07:38:45;45;42;
77365;PMS5003;66430;50.182;11.704;2023-08-17T07:41:11;37;37;
77365;PMS5003;66430;50.182;11.704;2023-08-17T07:43:36;44;43;
77365;PMS5003;66430;50.182;11.704;2023-08-17T07:46:01;38;38;
77365;PMS5003;66430;50.182;11.704;2023-08-17T07:48:26;41;39;
77365;PMS5003;66430;50.182;11.704;2023-08-17T07:50:52;38;36;
77365;PMS5003;66430;50.182;11.704;2023-08-17T07:53:18;39;38;
77365;PMS5003;66430;50.182;11.704;2023-08-17T07:55:43;39;38;
77365;PMS5003;66430;50.182;11.704;2023-08-17T07:58:08;37;37;
77365;PMS5003;66430;50.182;11.704;2023-08-17T08:00:34;37;36;
77365;PMS5003;66430;50.182;11.704;2023-08-17T08:03:00;41;40;
77365;PMS5003;66430;50.182;11.704;2023-08-17T08:05:25;38;37;
77365;PMS5003;66430;50.182;11.704;2023-08-17T08:07:51;41;37;
77365;PMS5003;66430;50.182;11.704;2023-08-17T08:10:16;45;42;
77365;PMS5003;66430;50.182;11.704;2023-08-17T08:12:42;39;39;
77365;PMS5003;66430;50.182;11.704;2023-08-17T08:15:08;35;34;
77365;PMS5003;66430;50.182;11.704;2023-08-17T08:17:33;40;38;
77365;PMS5003;66430;50.182;11.704;2023-08-17T08:19:58;42;38;
77365;PMS5003;66430;50.182;11.704;2023-08-17T08:22:24;36;36;
77365;PMS5003;66430;50.182;11.704;2023-08-17T08:24:49;37;37;
77365;PMS5003;66430;50.182;11.704;2023-08-17T08:27:15;37;34;
77365;PMS5003;66430;50.182;11.704;2023-08-17T08:29:40;38;37;
77365;PMS5003;66430;50.182;11.704;2023-08-17T08:32:06;36;35;
77365;PMS5003;66430;50.182;11.704;2023-08-17T08:34:32;33;33;
77365;PMS5003;66430;50.182;11.704;2023-08-17T08:36:58;33;32;
77365;PMS5003;66430;50.182;11.704;2023-08-17T08:39:24;42;40;
77365;PMS5003;66430;50.182;11.704;2023-08-17T08:41:49;43;41;
77365;PMS5003;66430;50.182;11.704;2023-08-17T08:44:14;38;36;
77365;PMS5003;66430;50.182;11.704;2023-08-17T08:46:40;33;33;
77365;PMS5003;66430;50.182;11.704;2023-08-17T08:49:05;34;33;
77365;PMS5003;66430;50.182;11.704;2023-08-17T08:51:31;42;39;
77365;PMS5003;66430;50.182;11.704;2023-08-17T08:54:00;40;37;
77365;PMS5003;66430;50.182;11.704;2023-08-17T08:56:21;39;36;
77365;PMS5003;66430;50.182;11.704;2023-08-17T08:58:47;40;40;
77365;PMS5003;66430;50.182;11.704;2023-08-17T09:01:12;39;39;
77365;PMS5003;66430;50.182;11.704;2023-08-17T09:03:37;32;31;
77365;PMS5003;66430;50.182;11.704;2023-08-17T09:06:03;29;29;
77365;PMS5003;66430;50.182;11.704;2023-08-17T09:08:29;33;32;
77365;PMS5003;66430;50.182;11.704;2023-08-17T09:10:54;33;32;
77365;PMS5003;66430;50.182;11.704;2023-08-17T09:13:20;31;31;
77365;PMS5003;66430;50.182;11.704;2023-08-17T09:15:45;31;30;
77365;PMS5003;66430;50.182;11.704;2023-08-17T09:18:11;29;29;
77365;PMS5003;66430;50.182;11.704;2023-08-17T09:20:37;36;36;
77365;PMS5003;66430;50.182;11.704;2023-08-17T09:23:03;29;29;
77365;PMS5003;66430;50.182;11.704;2023-08-17T09:25:27;34;34;
77365;PMS5003;66430;50.182;11.704;2023-08-17T09:27:52;33;33;
77365;PMS5003;66430;50.182;11.704;2023-08-17T09:30:18;32;31;
77365;PMS5003;66430;50.182;11.704;2023-08-17T09:32:48;29;28;
77365;PMS5003;66430;50.182;11.704;2023-08-17T09:35:08;32;32;
77365;PMS5003;66430;50.182;11.704;2023-08-17T09:37:34;35;34;
77365;PMS5003;66430;50.182;11.704;2023-08-17T09:40:00;36;35;
77365;PMS5003;66430;50.182;11.704;2023-08-17T09:42:25;33;30;
77365;PMS5003;66430;50.182;11.704;2023-08-17T09:44:51;27;27;
77365;PMS5003;66430;50.182;11.704;2023-08-17T09:47:16;32;32;
77365;PMS5003;66430;50.182;11.704;2023-08-17T09:49:41;30;27;
77365;PMS5003;66430;50.182;11.704;2023-08-17T09:52:07;27;25;
77365;PMS5003;66430;50.182;11.704;2023-08-17T09:54:32;32;32;
77365;PMS5003;66430;50.182;11.704;2023-08-17T09:56:58;33;31;
77365;PMS5003;66430;50.182;11.704;2023-08-17T09:59:23;32;31;
77365;PMS5003;66430;50.182;11.704;2023-08-17T10:01:49;34;33;
77365;PMS5003;66430;50.182;11.704;2023-08-17T10:04:14;35;34;
77365;PMS5003;66430;50.182;11.704;2023-08-17T10:06:40;35;33;
77365;PMS5003;66430;50.182;11.704;2023-08-17T10:09:06;32;31;
77365;PMS5003;66430;50.182;11.704;2023-08-17T10:11:31;32;32;
77365;PMS5003;66430;50.182;11.704;2023-08-17T10:13:59;39;39;
77365;PMS5003;66430;50.182;11.704;2023-08-17T10:16:23;32;30;
77365;PMS5003;66430;50.182;11.704;2023-08-17T10:18:50;29;27;
77365;PMS5003;66430;50.182;11.704;2023-08-17T10:21:21;32;31;
77365;PMS5003;66430;50.182;11.704;2023-08-17T10:23:39;33;31;
77365;PMS5003;66430;50.182;11.704;2023-08-17T10:26:04;34;34;
77365;PMS5003;66430;50.182;11.704;2023-08-17T10:28:30;29;28;
77365;PMS5003;66430;50.182;11.704;2023-08-17T10:30:55;31;30;
77365;PMS5003;66430;50.182;11.704;2023-08-17T10:33:20;33;32;
77365;PMS5003;66430;50.182;11.704;2023-08-17T10:35:46;37;36;
77365;PMS5003;66430;50.182;11.704;2023-08-17T10:38:11;43;39;
77365;PMS5003;66430;50.182;11.704;2023-08-17T10:40:37;34;34;
77365;PMS5003;66430;50.182;11.704;2023-08-17T10:43:02;40;39;
77365;PMS5003;66430;50.182;11.704;2023-08-17T10:45:28;36;34;
77365;PMS5003;66430;50.182;11.704;2023-08-17T10:50:21;32;32;
77365;PMS5003;66430;50.182;11.704;2023-08-17T10:52:44;33;31;
77365;PMS5003;66430;50.182;11.704;2023-08-17T10:55:09;31;31;
77365;PMS5003;66430;50.182;11.704;2023-08-17T10:57:35;33;33;
77365;PMS5003;66430;50.182;11.704;2023-08-17T11:00:07;34;34;
77365;PMS5003;66430;50.182;11.704;2023-08-17T11:02:25;33;32;
77365;PMS5003;66430;50.182;11.704;2023-08-17T11:04:50;32;30;
77365;PMS5003;66430;50.182;11.704;2023-08-17T11:07:16;33;33;
77365;PMS5003;66430;50.182;11.704;2023-08-17T11:09:41;33;31;
77365;PMS5003;66430;50.182;11.704;2023-08-17T11:12:07;29;29;
77365;PMS5003;66430;50.182;11.704;2023-08-17T11:14:33;29;29;
77365;PMS5003;66430;50.182;11.704;2023-08-17T11:16:57;26;25;
77365;PMS5003;66430;50.182;11.704;2023-08-17T11:19:23;35;32;
77365;PMS5003;66430;50.182;11.704;2023-08-17T11:21:49;29;27;
77365;PMS5003;66430;50.182;11.704;2023-08-17T11:24:14;32;31;
77365;PMS5003;66430;50.182;11.704;2023-08-17T11:26:39;29;28;
77365;PMS5003;66430;50.182;11.704;2023-08-17T11:29:05;32;30;
77365;PMS5003;66430;50.182;11.704;2023-08-17T11:31:31;31;31;
77365;PMS5003;66430;50.182;11.704;2023-08-17T11:33:57;35;32;
77365;PMS5003;66430;50.182;11.704;2023-08-17T11:36:21;32;32;
77365;PMS5003;66430;50.182;11.704;2023-08-17T11:38:46;29;29;
77365;PMS5003;66430;50.182;11.704;2023-08-17T11:41:11;34;34;
77365;PMS5003;66430;50.182;11.704;2023-08-17T11:43:37;30;29;
77365;PMS5003;66430;50.182;11.704;2023-08-17T11:46:02;33;32;
77365;PMS5003;66430;50.182;11.704;2023-08-17T11:48:27;31;30;
77365;PMS5003;66430;50.182;11.704;2023-08-17T11:50:53;29;29;
77365;PMS5003;66430;50.182;11.704;2023-08-17T11:53:18;31;29;
77365;PMS5003;66430;50.182;11.704;2023-08-17T11:55:44;33;32;
77365;PMS5003;66430;50.182;11.704;2023-08-17T11:58:09;36;33;
77365;PMS5003;66430;50.182;11.704;2023-08-17T12:00:36;29;29;
77365;PMS5003;66430;50.182;11.704;2023-08-17T12:03:01;36;35;
77365;PMS5003;66430;50.182;11.704;2023-08-17T12:05:27;31;31;
77365;PMS5003;66430;50.182;11.704;2023-08-17T12:07:52;31;31;
77365;PMS5003;66430;50.182;11.704;2023-08-17T12:10:18;29;29;
77365;PMS5003;66430;50.182;11.704;2023-08-17T12:12:43;38;35;
77365;PMS5003;66430;50.182;11.704;2023-08-17T12:15:09;32;31;
77365;PMS5003;66430;50.182;11.704;2023-08-17T12:17:33;35;35;
77365;PMS5003;66430;50.182;11.704;2023-08-17T12:19:59;29;27;
77365;PMS5003;66430;50.182;11.704;2023-08-17T12:22:24;35;35;
77365;PMS5003;66430;50.182;11.704;2023-08-17T12:24:49;33;29;
77365;PMS5003;66430;50.182;11.704;2023-08-17T12:27:14;37;36;
77365;PMS5003;66430;50.182;11.704;2023-08-17T12:29:46;32;30;
77365;PMS5003;66430;50.182;11.704;2023-08-17T12:32:04;26;25;
77365;PMS5003;66430;50.182;11.704;2023-08-17T12:34:30;29;29;
77365;PMS5003;66430;50.182;11.704;2023-08-17T12:36:56;28;27;
77365;PMS5003;66430;50.182;11.704;2023-08-17T12:39:21;27;27;
77365;PMS5003;66430;50.182;11.704;2023-08-17T12:41:47;24;24;
77365;PMS5003;66430;50.182;11.704;2023-08-17T12:44:12;26;24;
77365;PMS5003;66430;50.182;11.704;2023-08-17T12:46:37;26;25;
77365;PMS5003;66430;50.182;11.704;2023-08-17T12:49:03;23;23;
77365;PMS5003;66430;50.182;11.704;2023-08-17T12:51:28;21;21;
77365;PMS5003;66430;50.182;11.704;2023-08-17T12:53:55;28;25;
77365;PMS5003;66430;50.182;11.704;2023-08-17T12:56:19;19;19;
77365;PMS5003;66430;50.182;11.704;2023-08-17T12:58:45;24;23;
77365;PMS5003;66430;50.182;11.704;2023-08-17T13:01:10;23;23;
77365;PMS5003;66430;50.182;11.704;2023-08-17T13:03:36;21;21;
77365;PMS5003;66430;50.182;11.704;2023-08-17T13:06:01;22;21;
77365;PMS5003;66430;50.182;11.704;2023-08-17T13:08:27;26;25;
77365;PMS5003;66430;50.182;11.704;2023-08-17T13:10:53;22;22;
77365;PMS5003;66430;50.182;11.704;2023-08-17T13:13:18;25;22;
77365;PMS5003;66430;50.182;11.704;2023-08-17T13:15:44;22;21;
77365;PMS5003;66430;50.182;11.704;2023-08-17T13:18:10;20;19;
77365;PMS5003;66430;50.182;11.704;2023-08-17T13:20:35;25;24;
77365;PMS5003;66430;50.182;11.704;2023-08-17T13:23:00;24;24;
77365;PMS5003;66430;50.182;11.704;2023-08-17T13:25:25;24;23;
77365;PMS5003;66430;50.182;11.704;2023-08-17T13:27:51;27;27;
77365;PMS5003;66430;50.182;11.704;2023-08-17T13:30:17;23;22;
77365;PMS5003;66430;50.182;11.704;2023-08-17T13:32:42;27;27;
77365;PMS5003;66430;50.182;11.704;2023-08-17T13:35:08;22;22;
77365;PMS5003;66430;50.182;11.704;2023-08-17T13:37:33;27;26;
77365;PMS5003;66430;50.182;11.704;2023-08-17T13:39:59;27;25;
77365;PMS5003;66430;50.182;11.704;2023-08-17T13:42:24;25;24;
77365;PMS5003;66430;50.182;11.704;2023-08-17T13:44:50;29;28;
77365;PMS5003;66430;50.182;11.704;2023-08-17T13:47:15;27;27;
77365;PMS5003;66430;50.182;11.704;2023-08-17T13:49:40;34;31;
77365;PMS5003;66430;50.182;11.704;2023-08-17T13:52:05;29;29;
77365;PMS5003;66430;50.182;11.704;2023-08-17T13:54:31;27;26;
77365;PMS5003;66430;50.182;11.704;2023-08-17T13:56:56;20;20;
77365;PMS5003;66430;50.182;11.704;2023-08-17T13:59:22;28;27;
77365;PMS5003;66430;50.182;11.704;2023-08-17T14:01:47;29;29;
77365;PMS5003;66430;50.182;11.704;2023-08-17T14:04:13;29;28;
77365;PMS5003;66430;50.182;11.704;2023-08-17T14:06:38;33;30;
77365;PMS5003;66430;50.182;11.704;2023-08-17T14:09:04;28;28;
77365;PMS5003;66430;50.182;11.704;2023-08-17T14:11:29;24;24;
77365;PMS5003;66430;50.182;11.704;2023-08-17T14:13:54;28;28;
77365;PMS5003;66430;50.182;11.704;2023-08-17T14:16:19;25;24;
77365;PMS5003;66430;50.182;11.704;2023-08-17T14:18:47;22;21;
77365;PMS5003;66430;50.182;11.704;2023-08-17T14:21:11;23;23;
77365;PMS5003;66430;50.182;11.704;2023-08-17T14:23:37;27;27;
77365;PMS5003;66430;50.182;11.704;2023-08-17T14:26:02;28;26;
77365;PMS5003;66430;50.182;11.704;2023-08-17T14:28:27;26;25;
77365;PMS5003;66430;50.182;11.704;2023-08-17T14:30:52;28;28;
77365;PMS5003;66430;50.182;11.704;2023-08-17T14:33:18;27;26;
77365;PMS5003;66430;50.182;11.704;2023-08-17T14:35:43;23;23;
77365;PMS5003;66430;50.182;11.704;2023-08-17T14:38:09;26;26;
77365;PMS5003;66430;50.182;11.704;2023-08-17T14:40:35;27;24;
77365;PMS5003;66430;50.182;11.704;2023-08-17T14:43:00;21;21;
77365;PMS5003;66430;50.182;11.704;2023-08-17T14:45:25;17;17;
77365;PMS5003;66430;50.182;11.704;2023-08-17T14:47:51;15;15;
77365;PMS5003;66430;50.182;11.704;2023-08-17T14:50:16;17;17;
77365;PMS5003;66430;50.182;11.704;2023-08-17T14:52:41;15;15;
77365;PMS5003;66430;50.182;11.704;2023-08-17T14:55:07;21;21;
77365;PMS5003;66430;50.182;11.704;2023-08-17T14:57:31;32;29;
77365;PMS5003;66430;50.182;11.704;2023-08-17T14:59:57;29;29;
77365;PMS5003;66430;50.182;11.704;2023-08-17T15:02:23;23;23;
77365;PMS5003;66430;50.182;11.704;2023-08-17T15:04:49;26;25;
77365;PMS5003;66430;50.182;11.704;2023-08-17T15:07:14;19;19;
77365;PMS5003;66430;50.182;11.704;2023-08-17T15:09:40;28;28;
77365;PMS5003;66430;50.182;11.704;2023-08-17T15:12:06;27;25;
77365;PMS5003;66430;50.182;11.704;2023-08-17T15:14:31;24;24;
77365;PMS5003;66430;50.182;11.704;2023-08-17T15:16:56;27;26;
77365;PMS5003;66430;50.182;11.704;2023-08-17T15:19:22;26;25;
77365;PMS5003;66430;50.182;11.704;2023-08-17T15:21:48;28;27;
77365;PMS5003;66430;50.182;11.704;2023-08-17T15:24:13;25;24;
77365;PMS5003;66430;50.182;11.704;2023-08-17T15:26:38;27;26;
77365;PMS5003;66430;50.182;11.704;2023-08-17T15:29:03;25;24;
77365;PMS5003;66430;50.182;11.704;2023-08-17T15:31:28;24;24;
77365;PMS5003;66430;50.182;11.704;2023-08-17T15:33:54;19;19;
77365;PMS5003;66430;50.182;11.704;2023-08-17T15:36:19;20;19;
77365;PMS5003;66430;50.182;11.704;2023-08-17T15:38:45;17;17;
77365;PMS5003;66430;50.182;11.704;2023-08-17T15:41:10;19;16;
77365;PMS5003;66430;50.182;11.704;2023-08-17T15:43:36;20;19;
77365;PMS5003;66430;50.182;11.704;2023-08-17T15:46:01;21;21;
77365;PMS5003;66430;50.182;11.704;2023-08-17T15:48:26;18;17;
77365;PMS5003;66430;50.182;11.704;2023-08-17T15:50:52;17;15;
77365;PMS5003;66430;50.182;11.704;2023-08-17T15:53:17;15;15;